Time;durP1;ratioP1;P1;durP2;ratioP2;P2;SDS_P1;SDS_P2;PMS_P1;PMS_P2;Temp;Humidity;BMP_temperature;BMP_pressure;BME280_temperature;BME280_humidity;BME280_pressure;Samples;Min_cycle;Max_cycle;Signal;HPM_P1;HPM_P2
2021/04/24 00:00:16;;;;;;;;;;;;;;;6.64;54.20;100226.66;1812209;79;20133;-59
2021/04/24 00:02:43;;;;;;;;;;;;;;;6.57;54.26;100225.78;1818283;79;20307;-58
2021/04/24 00:05:22;;;;;;;;;;;;;;;6.52;54.51;100233.52;1818410;79;20291;-58
2021/04/24 00:07:55;;;;;;;;;;;;;;;6.47;54.74;100239.95;1799060;79;20591;-57
2021/04/24 00:10:22;;;;;;;;;;;;;;;6.37;54.91;100243.47;1809465;79;20196;-59
2021/04/24 00:12:50;;;;;;;;;;;;;;;6.25;55.26;100237.33;1818261;79;20172;-60
2021/04/24 00:15:18;;;;;;;;;;;;;;;6.12;55.63;100240.73;1816148;79;20220;-58
2021/04/24 00:17:46;;;;;;;;;;;;;;;6.01;55.95;100235.91;1818485;78;20224;-59
2021/04/24 00:20:16;;;;;;;;;;;;;;;5.92;56.21;100238.36;1818120;78;21193;-59
2021/04/24 00:22:44;;;;;;;;;;;;;;;5.76;56.55;100246.90;1818170;78;20208;-57
2021/04/24 00:25:12;;;;;;;;;;;;;;;5.64;56.91;100242.26;1818366;79;20206;-59
2021/04/24 00:27:40;;;;;;;;;;;;;;;5.55;57.14;100249.05;1787106;79;20319;-59
2021/04/24 00:30:10;;;;;;;;;;;;;;;5.51;57.44;100248.28;1817738;79;20221;-58
2021/04/24 00:32:37;;;;;;;;;;;;;;;5.46;57.58;100247.48;1671256;84;21288;-59
2021/04/24 00:35:06;;;;;;;;;;;;;;;5.46;57.70;100251.48;1667832;85;20261;-59
2021/04/24 00:37:34;;;;;;;;;;;;;;;5.42;57.82;100252.38;1670569;85;20254;-59
2021/04/24 00:40:03;;;;;;;;;;;;;;;5.43;57.91;100254.03;1667541;85;20253;-59
2021/04/24 00:42:39;;;;;;;;;;;;;;;5.48;57.98;100255.28;1827959;77;20284;-60
2021/04/24 00:45:09;;;;;;;;;;;;;;;5.42;57.96;100251.55;1804828;79;20203;-58
2021/04/24 00:47:38;;;;;;;;;;;;;;;5.40;58.10;100253.08;1799606;78;21302;-59
2021/04/24 00:50:07;;;;;;;;;;;;;;;5.39;58.07;100253.27;1801913;79;20143;-58
2021/04/24 00:52:35;;;;;;;;;;;;;;;5.34;58.21;100255.64;1800104;79;20131;-58
2021/04/24 00:55:04;;;;;;;;;;;;;;;5.27;58.30;100254.25;1804902;79;20326;-58
2021/04/24 00:57:32;;;;;;;;;;;;;;;5.22;58.45;100256.11;1801918;79;20155;-58
2021/04/24 01:00:00;;;;;;;;;;;;;;;5.17;58.56;100256.38;1802005;79;21205;-58
2021/04/24 01:02:27;;;;;;;;;;;;;;;5.12;58.62;100256.09;1792379;79;20593;-59
2021/04/24 01:04:55;;;;;;;;;;;;;;;5.04;58.73;100254.36;1805072;79;20173;-59
2021/04/24 01:07:23;;;;;;;;;;;;;;;4.98;58.90;100256.43;1795815;79;20831;-59
2021/04/24 01:09:51;;;;;;;;;;;;;;;4.94;58.94;100261.27;1802235;79;20269;-58
2021/04/24 01:12:18;;;;;;;;;;;;;;;4.91;59.04;100261.13;1792769;79;21211;-59
2021/04/24 01:14:46;;;;;;;;;;;;;;;4.90;59.13;100263.48;1802360;79;21819;-59
2021/04/24 01:17:14;;;;;;;;;;;;;;;4.92;59.14;100261.97;1803854;78;20139;-59
2021/04/24 01:19:43;;;;;;;;;;;;;;;4.90;59.16;100260.83;1803775;79;20236;-59
2021/04/24 01:22:11;;;;;;;;;;;;;;;4.86;59.12;100264.04;1799876;79;20160;-58
2021/04/24 01:24:39;;;;;;;;;;;;;;;4.83;59.27;100263.89;1802582;79;21213;-59
2021/04/24 01:27:07;;;;;;;;;;;;;;;4.80;59.27;100268.24;1802720;79;20338;-59
2021/04/24 01:29:36;;;;;;;;;;;;;;;4.80;59.27;100274.88;1797592;79;20225;-58
2021/04/24 01:32:05;;;;;;;;;;;;;;;4.83;59.20;100271.86;1799866;79;20229;-58
2021/04/24 01:34:33;;;;;;;;;;;;;;;4.88;59.01;100269.47;1805407;78;20133;-59
2021/04/24 01:37:01;;;;;;;;;;;;;;;4.88;58.92;100274.78;1801302;79;21208;-58
2021/04/24 01:39:29;;;;;;;;;;;;;;;4.84;58.88;100266.03;1800965;79;20235;-57
2021/04/24 01:41:57;;;;;;;;;;;;;;;4.82;58.98;100269.39;1771164;79;20505;-59
2021/04/24 01:44:25;;;;;;;;;;;;;;;4.78;58.90;100274.73;1757605;80;20226;-58
2021/04/24 01:46:53;;;;;;;;;;;;;;;4.68;58.95;100278.50;1752562;80;20289;-58
2021/04/24 01:49:21;;;;;;;;;;;;;;;4.63;59.01;100274.22;1761112;80;21289;-59
2021/04/24 01:51:49;;;;;;;;;;;;;;;4.62;59.04;100271.74;1759954;80;20239;-60
2021/04/24 01:54:17;;;;;;;;;;;;;;;4.60;58.95;100275.09;1736942;81;20228;-58
2021/04/24 01:56:54;;;;;;;;;;;;;;;4.56;58.89;100271.48;1757207;81;20153;-59
2021/04/24 01:59:23;;;;;;;;;;;;;;;4.50;58.91;100272.69;1758501;81;20226;-60
2021/04/24 02:01:52;;;;;;;;;;;;;;;4.44;59.01;100280.05;1759402;81;21157;-59
2021/04/24 02:04:21;;;;;;;;;;;;;;;4.37;59.11;100275.95;1761042;81;20298;-59
2021/04/24 02:06:49;;;;;;;;;;;;;;;4.33;59.20;100276.82;1758483;80;20229;-58
2021/04/24 02:09:17;;;;;;;;;;;;;;;4.29;59.23;100274.70;1761227;81;20152;-57
2021/04/24 02:12:08;;;;;;;;;;;;;;;4.27;59.34;100284.66;1724802;81;20527;-57
2021/04/24 02:14:45;;;;;;;;;;;;;;;4.29;59.29;100288.80;1757211;81;21174;-58
2021/04/24 02:17:26;;;;;;;;;;;;;;;4.26;59.31;100281.70;1832971;77;20229;-58
2021/04/24 02:19:54;;;;;;;;;;;;;;;4.17;59.34;100295.03;1653527;86;20224;-59
2021/04/24 02:22:22;;;;;;;;;;;;;;;4.15;59.49;100289.56;1653730;86;21308;-58
2021/04/24 02:24:56;;;;;;;;;;;;;;;4.19;59.47;100298.83;1661260;86;20144;-58
2021/04/24 02:27:32;;;;;;;;;;;;;;;4.26;59.37;100297.12;1819515;77;20184;-59
2021/04/24 02:30:00;;;;;;;;;;;;;;;4.26;59.35;100296.30;1761189;79;20131;-59
2021/04/24 02:32:30;;;;;;;;;;;;;;;4.33;59.38;100293.26;1792224;79;21204;-58
2021/04/24 02:34:59;;;;;;;;;;;;;;;4.44;59.20;100296.79;1795232;79;20131;-58
2021/04/24 02:37:27;;;;;;;;;;;;;;;4.56;59.10;100302.02;1787506;79;20139;-58
2021/04/24 02:39:55;;;;;;;;;;;;;;;4.67;58.95;100299.92;1754439;79;20159;-59
2021/04/24 02:42:25;;;;;;;;;;;;;;;4.71;58.62;100299.38;1747287;82;20170;-59
2021/04/24 02:44:54;;;;;;;;;;;;;;;4.73;58.45;100297.86;1747323;82;21210;-59
2021/04/24 02:47:23;;;;;;;;;;;;;;;4.78;58.25;100303.95;1747107;82;20193;-59
2021/04/24 02:49:51;;;;;;;;;;;;;;;4.79;58.08;100301.63;1746325;82;20150;-58
2021/04/24 02:52:19;;;;;;;;;;;;;;;4.80;58.03;100304.10;1715923;82;20296;-58
2021/04/24 02:54:47;;;;;;;;;;;;;;;4.82;57.85;100310.05;1747213;82;20141;-63
2021/04/24 02:57:15;;;;;;;;;;;;;;;4.82;57.64;100308.72;1747182;82;21211;-59
2021/04/24 02:59:43;;;;;;;;;;;;;;;4.76;57.63;100318.75;1747212;82;20570;-59
2021/04/24 03:02:11;;;;;;;;;;;;;;;4.65;57.88;100325.33;1714734;82;20138;-58
2021/04/24 03:04:38;;;;;;;;;;;;;;;4.66;58.05;100326.14;1747325;82;20224;-59
2021/04/24 03:07:06;;;;;;;;;;;;;;;4.74;58.04;100330.03;1747242;82;20194;-58
2021/04/24 03:09:34;;;;;;;;;;;;;;;4.83;57.71;100340.92;1747131;82;21275;-58
2021/04/24 03:12:02;;;;;;;;;;;;;;;4.91;57.63;100336.02;1741771;82;20955;-59
2021/04/24 03:14:29;;;;;;;;;;;;;;;5.00;57.43;100342.08;1740438;82;20256;-60
2021/04/24 03:16:57;;;;;;;;;;;;;;;5.08;57.26;100340.16;1746616;82;20161;-58
2021/04/24 03:19:25;;;;;;;;;;;;;;;5.19;57.02;100338.87;1747126;82;20212;-58
2021/04/24 03:21:54;;;;;;;;;;;;;;;5.33;56.69;100339.05;1747395;82;22866;-58
2021/04/24 03:24:22;;;;;;;;;;;;;;;5.55;56.35;100330.64;1747197;82;20602;-60
2021/04/24 03:26:50;;;;;;;;;;;;;;;5.96;55.67;100324.77;1741089;81;20236;-59
2021/04/24 03:29:18;;;;;;;;;;;;;;;6.58;54.66;100334.48;1736907;82;20150;-57
2021/04/24 03:31:46;;;;;;;;;;;;;;;7.26;53.18;100340.57;1736936;82;20522;-57
2021/04/24 03:34:14;;;;;;;;;;;;;;;7.90;51.66;100355.42;1620161;88;21239;-59
2021/04/24 03:36:43;;;;;;;;;;;;;;;8.54;50.13;100356.81;1622819;88;20252;-58
2021/04/24 03:39:10;;;;;;;;;;;;;;;9.05;48.68;100353.98;1601054;88;20311;-58
2021/04/24 03:41:38;;;;;;;;;;;;;;;9.32;47.94;100361.14;1623125;88;20595;-59
2021/04/24 03:44:06;;;;;;;;;;;;;;;9.37;47.41;100360.83;1622815;88;20176;-61
2021/04/24 03:46:34;;;;;;;;;;;;;;;9.28;47.33;100361.56;1593295;89;21243;-58
2021/04/24 03:49:03;;;;;;;;;;;;;;;9.06;47.48;100360.99;1579204;89;20269;-58
2021/04/24 03:51:31;;;;;;;;;;;;;;;8.89;47.85;100363.78;1637417;82;20260;-59
2021/04/24 03:53:59;;;;;;;;;;;;;;;8.86;48.26;100361.53;1733225;82;20354;-58
2021/04/24 03:56:27;;;;;;;;;;;;;;;8.83;48.30;100360.61;1692400;84;20293;-59
2021/04/24 03:58:55;;;;;;;;;;;;;;;8.81;48.43;100366.69;1696069;84;21306;-59
2021/04/24 04:01:23;;;;;;;;;;;;;;;8.86;48.46;100363.71;1690728;84;20143;-60
2021/04/24 04:03:51;;;;;;;;;;;;;;;9.21;48.19;100363.95;1696267;84;20227;-59
2021/04/24 04:06:19;;;;;;;;;;;;;;;9.82;47.39;100366.75;1697841;84;20233;-59
2021/04/24 04:08:48;;;;;;;;;;;;;;;10.57;46.08;100363.94;1696062;84;20244;-59
2021/04/24 04:11:16;;;;;;;;;;;;;;;11.57;43.10;100369.17;1698267;84;22046;-59
2021/04/24 04:13:44;;;;;;;;;;;;;;;12.49;41.46;100374.06;1702424;82;20264;-58
2021/04/24 04:16:13;;;;;;;;;;;;;;;13.33;39.39;100367.13;1736433;82;20228;-59
2021/04/24 04:18:41;;;;;;;;;;;;;;;14.13;38.02;100370.62;1736265;82;20390;-60
2021/04/24 04:21:09;;;;;;;;;;;;;;;14.81;37.11;100366.16;1736440;82;20139;-62
2021/04/24 04:23:37;;;;;;;;;;;;;;;15.58;35.45;100369.09;1736364;82;21211;-59
2021/04/24 04:26:05;;;;;;;;;;;;;;;16.18;34.45;100366.53;1737806;82;20330;-60
2021/04/24 04:28:32;;;;;;;;;;;;;;;16.84;33.12;100373.59;1757072;80;20122;-60
2021/04/24 04:31:00;;;;;;;;;;;;;;;17.25;32.56;100376.05;1746921;82;20264;-60
2021/04/24 04:33:34;;;;;;;;;;;;;;;17.76;32.10;100385.52;1701977;84;20309;-60
2021/04/24 04:36:05;;;;;;;;;;;;;;;18.50;30.55;100377.55;1694673;84;21400;-59
2021/04/24 04:38:33;;;;;;;;;;;;;;;19.06;29.22;100379.44;1691481;84;20336;-59
2021/04/24 04:41:01;;;;;;;;;;;;;;;19.44;29.18;100381.80;1701334;84;20250;-61
2021/04/24 04:43:29;;;;;;;;;;;;;;;19.71;28.36;100377.36;1702673;84;20267;-59
2021/04/24 04:45:56;;;;;;;;;;;;;;;19.86;28.42;100377.02;1702317;84;20253;-60
2021/04/24 04:48:32;;;;;;;;;;;;;;;20.27;27.54;100379.50;1827402;77;20182;-59
2021/04/24 04:51:00;;;;;;;;;;;;;;;20.59;26.94;100368.09;1798368;79;20223;-59
2021/04/24 04:53:28;;;;;;;;;;;;;;;20.95;26.73;100370.55;1800944;79;21207;-61
2021/04/24 04:55:58;;;;;;;;;;;;;;;20.81;26.70;100368.22;1799752;79;20163;-59
2021/04/24 04:58:26;;;;;;;;;;;;;;;20.20;26.95;100371.67;1789872;79;20493;-59
2021/04/24 05:00:54;;;;;;;;;;;;;;;19.43;27.97;100380.16;1801632;79;20129;-61
2021/04/24 05:03:21;;;;;;;;;;;;;;;18.78;28.78;100382.72;1802212;79;20109;-59
2021/04/24 05:05:49;;;;;;;;;;;;;;;18.14;29.44;100389.73;1804875;79;21237;-60
2021/04/24 05:08:17;;;;;;;;;;;;;;;17.30;30.44;100391.00;1801011;79;20214;-59
2021/04/24 05:10:45;;;;;;;;;;;;;;;16.35;31.50;100383.47;1798848;79;20162;-59
2021/04/24 05:13:13;;;;;;;;;;;;;;;15.34;32.82;100394.16;1802643;79;20250;-59
2021/04/24 05:15:43;;;;;;;;;;;;;;;14.40;34.52;100394.28;1801472;79;20153;-59
2021/04/24 05:18:11;;;;;;;;;;;;;;;13.31;36.46;100400.75;1799603;79;21205;-60
2021/04/24 05:20:39;;;;;;;;;;;;;;;12.41;37.96;100402.61;1800437;79;20400;-61
2021/04/24 05:23:07;;;;;;;;;;;;;;;11.56;39.48;100400.28;1802251;79;20141;-61
2021/04/24 05:25:35;;;;;;;;;;;;;;;10.92;40.95;100398.31;1796122;79;20280;-58
2021/04/24 05:28:04;;;;;;;;;;;;;;;10.48;41.74;100399.07;1803110;78;20503;-59
2021/04/24 05:30:31;;;;;;;;;;;;;;;10.46;42.59;100399.78;1800442;79;21146;-59
2021/04/24 05:32:59;;;;;;;;;;;;;;;10.49;42.59;100395.33;1800434;79;20162;-60
2021/04/24 05:35:28;;;;;;;;;;;;;;;10.29;42.83;100395.95;1800982;78;20277;-58
2021/04/24 05:37:56;;;;;;;;;;;;;;;10.36;43.18;100391.40;1802097;79;20147;-60
2021/04/24 05:40:26;;;;;;;;;;;;;;;10.67;42.81;100401.81;1797759;78;20136;-59
2021/04/24 05:42:54;;;;;;;;;;;;;;;11.56;42.55;100404.30;1757507;79;21193;-58
2021/04/24 05:45:24;;;;;;;;;;;;;;;12.82;40.43;100402.29;1783452;79;20219;-59
2021/04/24 05:47:52;;;;;;;;;;;;;;;13.69;38.29;100402.10;1770625;79;20486;-59
2021/04/24 05:50:22;;;;;;;;;;;;;;;13.76;38.22;100404.14;1789242;79;20153;-59
2021/04/24 05:52:52;;;;;;;;;;;;;;;13.56;38.49;100404.55;1784881;79;20234;-59
2021/04/24 05:55:19;;;;;;;;;;;;;;;13.19;38.55;100410.17;1769118;79;21211;-59
2021/04/24 05:57:48;;;;;;;;;;;;;;;12.60;39.64;100412.27;1783110;79;20193;-60
2021/04/24 06:00:19;;;;;;;;;;;;;;;12.10;40.67;100407.17;1786640;79;20243;-58
2021/04/24 06:02:47;;;;;;;;;;;;;;;11.70;41.63;100411.17;1783578;79;20310;-58
2021/04/24 06:05:16;;;;;;;;;;;;;;;11.69;42.34;100412.20;1788960;79;20301;-61
2021/04/24 06:07:44;;;;;;;;;;;;;;;12.07;41.52;100410.31;1787249;79;21193;-59
2021/04/24 06:10:14;;;;;;;;;;;;;;;12.33;41.17;100406.45;1786221;79;20112;-60
2021/04/24 06:12:48;;;;;;;;;;;;;;;12.16;41.26;100417.04;1788342;79;20139;-60
2021/04/24 06:15:18;;;;;;;;;;;;;;;11.78;42.06;100418.09;1786388;79;20145;-58
2021/04/24 06:17:45;;;;;;;;;;;;;;;11.42;43.25;100404.95;1784379;79;20204;-58
2021/04/24 06:20:14;;;;;;;;;;;;;;;11.12;42.88;100408.35;1788930;79;21198;-58
2021/04/24 06:22:42;;;;;;;;;;;;;;;10.91;43.22;100406.89;1786247;79;20513;-58
2021/04/24 06:25:12;;;;;;;;;;;;;;;11.08;43.64;100407.67;1785564;78;20206;-58
2021/04/24 06:27:40;;;;;;;;;;;;;;;11.65;42.34;100407.52;1790214;79;20140;-59
2021/04/24 06:30:09;;;;;;;;;;;;;;;11.94;42.01;100399.74;1788482;79;20221;-61
2021/04/24 06:32:37;;;;;;;;;;;;;;;11.95;41.60;100398.70;1791934;79;22750;-58
2021/04/24 06:35:06;;;;;;;;;;;;;;;11.79;41.43;100397.42;1787095;79;20598;-58
2021/04/24 06:37:34;;;;;;;;;;;;;;;11.67;42.29;100406.22;1785285;79;20217;-58
2021/04/24 06:40:02;;;;;;;;;;;;;;;11.52;41.82;100411.97;1784036;79;20140;-58
2021/04/24 06:42:30;;;;;;;;;;;;;;;11.39;42.16;100414.80;1778729;79;20227;-59
2021/04/24 06:44:57;;;;;;;;;;;;;;;12.04;42.28;100409.43;1789164;79;21200;-57
2021/04/24 06:47:25;;;;;;;;;;;;;;;12.92;41.08;100419.22;1771024;79;20589;-58
2021/04/24 06:49:53;;;;;;;;;;;;;;;13.37;38.14;100417.33;1790296;79;20513;-57
2021/04/24 06:52:36;;;;;;;;;;;;;;;13.06;38.13;100428.72;1789848;79;20189;-61
2021/04/24 06:55:05;;;;;;;;;;;;;;;12.40;40.18;100419.28;1788293;79;20306;-59
2021/04/24 06:57:33;;;;;;;;;;;;;;;11.90;41.47;100430.25;1789646;79;21357;-59
2021/04/24 07:00:01;;;;;;;;;;;;;;;11.33;43.01;100431.26;1788260;79;20250;-59
2021/04/24 07:02:29;;;;;;;;;;;;;;;10.78;44.48;100443.20;1695261;83;20298;-58
2021/04/24 07:04:57;;;;;;;;;;;;;;;10.36;45.57;100460.27;1695235;83;20194;-58
2021/04/24 07:07:25;;;;;;;;;;;;;;;9.73;46.87;100450.50;1696349;83;20303;-60
2021/04/24 07:09:53;;;;;;;;;;;;;;;9.10;48.97;100451.82;1674721;83;21391;-58
2021/04/24 07:12:21;;;;;;;;;;;;;;;8.83;50.50;100448.30;1694368;83;20131;-59
2021/04/24 07:14:49;;;;;;;;;;;;;;;8.91;51.21;100456.66;1696844;83;20503;-59
2021/04/24 07:17:17;;;;;;;;;;;;;;;9.03;50.69;100458.20;1696906;83;20251;-58
2021/04/24 07:19:45;;;;;;;;;;;;;;;9.17;52.07;100453.66;1709611;79;20349;-59
2021/04/24 07:22:13;;;;;;;;;;;;;;;9.35;51.86;100457.03;1790535;79;21195;-58
2021/04/24 07:24:44;;;;;;;;;;;;;;;9.59;50.74;100450.22;1784669;79;20116;-59
2021/04/24 07:27:11;;;;;;;;;;;;;;;9.74;49.82;100444.09;1785197;79;20603;-58
2021/04/24 07:29:39;;;;;;;;;;;;;;;9.80;48.24;100451.80;1785737;79;20544;-58
2021/04/24 07:32:07;;;;;;;;;;;;;;;9.73;48.57;100450.50;1755163;79;20493;-57
2021/04/24 07:34:36;;;;;;;;;;;;;;;9.82;48.09;100448.41;1788753;79;21251;-57
2021/04/24 07:37:04;;;;;;;;;;;;;;;9.94;47.41;100452.59;1751955;79;20159;-59
2021/04/24 07:39:32;;;;;;;;;;;;;;;9.91;46.53;100448.48;1786462;79;20114;-57
2021/04/24 07:41:59;;;;;;;;;;;;;;;9.88;46.74;100460.95;1770751;79;20239;-58
2021/04/24 07:44:28;;;;;;;;;;;;;;;9.97;46.70;100452.98;1787166;79;20116;-62
2021/04/24 07:46:56;;;;;;;;;;;;;;;10.18;46.68;100449.17;1786715;79;21197;-58
2021/04/24 07:49:24;;;;;;;;;;;;;;;10.41;46.47;100452.39;1780838;79;20306;-59
2021/04/24 07:51:52;;;;;;;;;;;;;;;10.45;45.66;100462.48;1781708;79;20496;-59
2021/04/24 07:54:20;;;;;;;;;;;;;;;10.34;46.43;100457.80;1783860;79;20241;-59
2021/04/24 07:56:48;;;;;;;;;;;;;;;10.04;46.66;100449.45;1782335;79;20267;-58
2021/04/24 07:59:16;;;;;;;;;;;;;;;9.65;46.50;100460.08;1779743;79;22027;-58
2021/04/24 08:01:44;;;;;;;;;;;;;;;9.24;47.02;100457.97;1781279;79;20145;-58
2021/04/24 08:04:12;;;;;;;;;;;;;;;9.03;48.05;100459.02;1783130;79;20134;-57
2021/04/24 08:06:40;;;;;;;;;;;;;;;9.12;48.75;100454.28;1782058;79;20134;-58
2021/04/24 08:09:08;;;;;;;;;;;;;;;9.22;47.89;100460.05;1691773;84;20243;-58
2021/04/24 08:11:36;;;;;;;;;;;;;;;9.31;47.54;100453.97;1665360;85;21227;-59
2021/04/24 08:14:04;;;;;;;;;;;;;;;9.30;45.32;100441.61;1689641;84;20190;-59
2021/04/24 08:16:31;;;;;;;;;;;;;;;9.21;45.30;100453.56;1691632;84;20317;-58
2021/04/24 08:19:08;;;;;;;;;;;;;;;9.35;45.06;100441.83;1830257;77;20725;-58
2021/04/24 08:21:36;;;;;;;;;;;;;;;9.40;45.19;100445.21;1801202;79;20119;-57
2021/04/24 08:24:05;;;;;;;;;;;;;;;9.49;45.57;100436.45;1803677;79;21187;-57
2021/04/24 08:26:33;;;;;;;;;;;;;;;9.54;45.74;100449.52;1799767;79;20111;-58
2021/04/24 08:29:05;;;;;;;;;;;;;;;9.57;45.31;100445.08;1802162;79;20162;-57
2021/04/24 08:31:31;;;;;;;;;;;;;;;9.58;44.50;100443.21;1767334;79;20170;-58
2021/04/24 08:33:59;;;;;;;;;;;;;;;9.58;44.73;100439.20;1794923;78;20157;-58
2021/04/24 08:36:28;;;;;;;;;;;;;;;9.63;44.12;100430.03;1795667;79;21273;-57
2021/04/24 08:38:56;;;;;;;;;;;;;;;9.59;43.73;100442.19;1798373;79;20504;-59
2021/04/24 08:41:24;;;;;;;;;;;;;;;9.48;44.03;100447.64;1749689;80;20166;-59
2021/04/24 08:43:56;;;;;;;;;;;;;;;9.42;44.51;100437.78;1771320;80;20239;-57
2021/04/24 08:46:25;;;;;;;;;;;;;;;9.43;44.23;100433.56;1766437;80;20275;-59
2021/04/24 08:48:56;;;;;;;;;;;;;;;9.46;43.83;100433.14;1760210;80;21147;-58
2021/04/24 08:51:25;;;;;;;;;;;;;;;9.45;43.81;100428.84;1768111;80;20248;-59
2021/04/24 08:53:54;;;;;;;;;;;;;;;9.38;44.03;100432.05;1767313;80;20131;-59
2021/04/24 08:56:25;;;;;;;;;;;;;;;9.32;44.68;100430.70;1766970;80;20169;-58
2021/04/24 08:58:54;;;;;;;;;;;;;;;9.33;45.29;100431.02;1759407;80;20165;-57
2021/04/24 09:01:21;;;;;;;;;;;;;;;9.27;46.46;100432.66;1761529;80;21225;-58
2021/04/24 09:03:49;;;;;;;;;;;;;;;9.09;47.05;100439.99;1765941;80;20117;-58
2021/04/24 09:06:21;;;;;;;;;;;;;;;9.00;48.14;100440.71;1764805;80;20113;-59
2021/04/24 09:09:02;;;;;;;;;;;;;;;8.99;47.05;100433.70;1764159;80;20214;-59
2021/04/24 09:11:44;;;;;;;;;;;;;;;9.00;47.96;100435.37;1764154;80;20222;-58
2021/04/24 09:14:14;;;;;;;;;;;;;;;9.18;49.57;100421.88;1769668;80;21219;-57
2021/04/24 09:16:42;;;;;;;;;;;;;;;9.37;48.05;100422.89;1765839;80;20197;-58
2021/04/24 09:19:32;;;;;;;;;;;;;;;9.54;46.50;100416.06;1732100;81;20205;-58
2021/04/24 09:22:20;;;;;;;;;;;;;;;9.67;44.57;100415.70;1733831;82;20224;-57
2021/04/24 09:24:50;;;;;;;;;;;;;;;9.66;42.96;100409.54;1727682;82;20519;-58
2021/04/24 09:27:18;;;;;;;;;;;;;;;9.57;42.63;100436.20;1736590;82;21220;-61
2021/04/24 09:29:48;;;;;;;;;;;;;;;9.56;43.60;100450.11;1735187;81;20221;-57
2021/04/24 09:32:21;;;;;;;;;;;;;;;9.39;46.53;100457.78;1730275;82;20568;-58
2021/04/24 09:34:50;;;;;;;;;;;;;;;8.96;48.81;100496.15;1733853;82;20247;-57
2021/04/24 09:37:20;;;;;;;;;;;;;;;8.67;50.60;100505.67;1729242;82;20496;-59
2021/04/24 09:39:53;;;;;;;;;;;;;;;8.41;51.39;100522.41;1733757;82;21221;-58
2021/04/24 09:42:38;;;;;;;;;;;;;;;8.17;51.95;100531.73;1735481;82;20637;-58
2021/04/24 09:45:12;;;;;;;;;;;;;;;7.96;52.37;100535.34;1732914;82;20169;-58
2021/04/24 09:47:41;;;;;;;;;;;;;;;7.72;52.88;100533.45;1728323;82;20248;-58
2021/04/24 09:50:15;;;;;;;;;;;;;;;7.57;53.81;100534.89;1732449;82;20201;-59
2021/04/24 09:52:43;;;;;;;;;;;;;;;7.33;55.15;100528.13;1728227;82;21203;-59
2021/04/24 09:55:16;;;;;;;;;;;;;;;7.02;56.68;100529.28;1735649;82;20282;-58
2021/04/24 09:57:44;;;;;;;;;;;;;;;6.78;57.30;100519.31;1723864;82;20227;-59
2021/04/24 10:00:15;;;;;;;;;;;;;;;6.62;57.97;100514.23;1728852;82;20211;-59
2021/04/24 10:02:44;;;;;;;;;;;;;;;6.60;57.84;100504.28;1734554;82;20143;-59
2021/04/24 10:05:20;;;;;;;;;;;;;;;6.69;58.69;100488.48;1734628;82;21209;-59
2021/04/24 10:07:49;;;;;;;;;;;;;;;6.97;58.04;100491.73;1732495;82;20171;-58
2021/04/24 10:10:19;;;;;;;;;;;;;;;7.23;57.64;100487.14;1735889;82;20255;-58
2021/04/24 10:13:00;;;;;;;;;;;;;;;7.46;57.35;100482.06;1736010;82;20154;-58
2021/04/24 10:15:41;;;;;;;;;;;;;;;7.67;57.26;100483.34;1734168;82;20235;-58
2021/04/24 10:18:13;;;;;;;;;;;;;;;7.88;56.76;100483.75;1739211;81;21157;-59
2021/04/24 10:20:48;;;;;;;;;;;;;;;8.04;57.41;100474.59;1756935;81;20195;-57
2021/04/24 10:23:13;;;;;;;;;;;;;;;8.20;54.54;100477.92;1758442;80;20483;-58
2021/04/24 10:25:41;;;;;;;;;;;;;;;8.35;55.29;100480.47;1755907;81;20204;-58
2021/04/24 10:28:10;;;;;;;;;;;;;;;8.50;53.80;100484.34;1735263;81;20297;-59
2021/04/24 10:30:39;;;;;;;;;;;;;;;8.61;54.08;100480.25;1755897;80;21197;-57
2021/04/24 10:33:06;;;;;;;;;;;;;;;8.79;53.01;100481.00;1756494;81;20124;-58
2021/04/24 10:35:34;;;;;;;;;;;;;;;8.88;51.40;100475.27;1750098;81;20225;-57
2021/04/24 10:38:03;;;;;;;;;;;;;;;8.91;53.54;100478.05;1755002;81;20510;-58
2021/04/24 10:40:30;;;;;;;;;;;;;;;9.04;53.61;100475.38;1664075;85;20265;-58
2021/04/24 10:42:59;;;;;;;;;;;;;;;9.24;51.75;100476.70;1665390;85;21303;-58
2021/04/24 10:45:33;;;;;;;;;;;;;;;9.35;48.44;100485.13;1665440;85;20245;-58
2021/04/24 10:48:02;;;;;;;;;;;;;;;9.32;42.11;100462.31;1666066;85;20277;-60
2021/04/24 10:50:45;;;;;;;;;;;;;;;9.23;40.06;100464.37;1667202;85;20302;-58
2021/04/24 10:53:25;;;;;;;;;;;;;;;9.06;40.27;100461.80;1666839;85;20262;-59
2021/04/24 10:55:54;;;;;;;;;;;;;;;9.01;40.01;100460.24;1663840;85;22087;-57
2021/04/24 10:58:23;;;;;;;;;;;;;;;9.16;40.58;100468.90;1693436;82;20238;-58
2021/04/24 11:00:58;;;;;;;;;;;;;;;9.36;40.38;100465.38;1758392;81;20253;-58
2021/04/24 11:03:46;;;;;;;;;;;;;;;9.50;39.98;100456.31;1707293;81;20235;-60
2021/04/24 11:06:16;;;;;;;;;;;;;;;9.64;39.07;100449.91;1691733;84;20151;-59
2021/04/24 11:08:44;;;;;;;;;;;;;;;9.67;37.16;100458.53;1725337;82;21185;-58
2021/04/24 11:11:19;;;;;;;;;;;;;;;9.56;35.51;100458.67;1722531;82;20158;-59
2021/04/24 11:13:53;;;;;;;;;;;;;;;9.44;35.51;100451.27;1724474;82;20229;-57
2021/04/24 11:16:23;;;;;;;;;;;;;;;9.46;36.19;100459.90;1671965;84;20264;-59
2021/04/24 11:18:51;;;;;;;;;;;;;;;9.57;36.31;100455.78;1731888;82;20241;-58
2021/04/24 11:21:25;;;;;;;;;;;;;;;9.73;36.73;100470.58;1734884;82;21281;-58
2021/04/24 11:23:54;;;;;;;;;;;;;;;9.79;35.61;100471.07;1736267;82;20490;-59
2021/04/24 11:26:39;;;;;;;;;;;;;;;9.76;35.57;100459.45;1725135;82;20227;-58
2021/04/24 11:29:12;;;;;;;;;;;;;;;9.75;35.12;100464.48;1725243;82;20235;-61
2021/04/24 11:31:50;;;;;;;;;;;;;;;9.81;32.60;100466.84;1728965;82;20569;-57
2021/04/24 11:34:36;;;;;;;;;;;;;;;9.76;31.93;100460.78;1731877;82;21206;-61
2021/04/24 11:37:23;;;;;;;;;;;;;;;9.74;29.92;100464.70;1733351;82;20140;-58
2021/04/24 11:40:11;;;;;;;;;;;;;;;9.63;30.42;100463.50;1734393;82;20258;-58
2021/04/24 11:42:51;;;;;;;;;;;;;;;9.50;32.00;100455.50;1737797;82;20224;-59
2021/04/24 11:45:51;;;;;;;;;;;;;;;9.53;32.13;100451.06;1737195;82;20312;-59
2021/04/24 11:48:38;;;;;;;;;;;;;;;9.56;32.68;100472.86;1642086;86;21254;-62
2021/04/24 11:51:35;;;;;;;;;;;;;;;9.57;32.67;100457.13;1828698;77;20209;-58
2021/04/24 11:54:06;;;;;;;;;;;;;;;9.54;33.83;100466.91;1817976;78;20153;-59
2021/04/24 11:56:34;;;;;;;;;;;;;;;9.64;33.22;100462.44;1818862;79;22650;-60
2021/04/24 11:59:02;;;;;;;;;;;;;;;9.60;32.56;100474.09;1818756;78;20136;-59
2021/04/24 12:01:30;;;;;;;;;;;;;;;9.49;32.23;100461.88;1818569;79;20132;-60
2021/04/24 12:03:58;;;;;;;;;;;;;;;9.41;31.81;100476.30;1818996;79;20113;-58
2021/04/24 12:06:37;;;;;;;;;;;;;;;9.40;31.74;100481.33;1818984;78;20192;-58
2021/04/24 12:09:11;;;;;;;;;;;;;;;9.44;31.61;100465.17;1816854;79;21333;-58
2021/04/24 12:11:40;;;;;;;;;;;;;;;9.50;31.83;100468.88;1818857;79;20137;-59
2021/04/24 12:14:10;;;;;;;;;;;;;;;9.51;32.17;100482.55;1818932;79;20589;-58
2021/04/24 12:16:46;;;;;;;;;;;;;;;9.43;31.64;100475.03;1814892;79;20220;-60
2021/04/24 12:19:32;;;;;;;;;;;;;;;9.38;32.58;100481.54;1813594;79;20284;-58
2021/04/24 12:22:09;;;;;;;;;;;;;;;9.39;32.01;100488.55;1724063;83;21210;-58
2021/04/24 12:25:00;;;;;;;;;;;;;;;9.40;31.89;100478.13;1725337;83;20246;-59
2021/04/24 12:27:37;;;;;;;;;;;;;;;9.46;32.79;100471.94;1723490;83;20349;-58
2021/04/24 12:30:17;;;;;;;;;;;;;;;9.68;31.22;100469.55;1723130;83;20277;-59
2021/04/24 12:32:50;;;;;;;;;;;;;;;9.81;29.85;100465.50;1725515;83;20309;-58
2021/04/24 12:35:27;;;;;;;;;;;;;;;9.87;30.69;100469.20;1818618;77;20750;-59
2021/04/24 12:38:04;;;;;;;;;;;;;;;9.90;29.78;100455.38;1795123;79;20185;-57
2021/04/24 12:40:37;;;;;;;;;;;;;;;9.87;29.34;100472.69;1798307;79;21199;-58
2021/04/24 12:43:12;;;;;;;;;;;;;;;9.73;29.65;100473.25;1786034;80;21012;-58
2021/04/24 12:45:42;;;;;;;;;;;;;;;9.64;30.38;100467.30;1754451;80;20250;-58
2021/04/24 12:48:15;;;;;;;;;;;;;;;9.60;30.60;100473.28;1779562;80;20591;-59
2021/04/24 12:50:50;;;;;;;;;;;;;;;9.63;30.83;100471.52;1786281;80;20127;-60
2021/04/24 12:53:40;;;;;;;;;;;;;;;9.71;29.32;100471.81;1721037;83;22158;-58
2021/04/24 12:56:25;;;;;;;;;;;;;;;9.72;28.98;100468.11;1751156;82;20510;-59
2021/04/24 12:58:57;;;;;;;;;;;;;;;9.70;28.65;100476.36;1749518;82;20131;-59
2021/04/24 13:01:27;;;;;;;;;;;;;;;9.69;28.97;100465.33;1664866;86;20260;-59